Hamburg, Arkansas
Current Conditions -  °F | °C
As of 11:53 AM on Saturday 25 Oct 2014 (Local Time) from KLLQ Reporting Station
Clear Clear  
Wind Chill: 76°   Ceiling: Unl
Heat Index: 76°   Visibility: 10mi
Dew Point: 60°   Wind: 9mph
Humidity: 58%   Direction: 270°W
Pressure: 30.13"   Gusts: NA
Location:  33.23°N, 91.8°W
Report Text: KLLQ 251653Z AUTO 27008KT 240V310 10SM CLR 24/16 A3013 RMK AO2 RAE02 SLP202 P0000 T02440156
Loading
Personal Weather Stations






























Interactive Weather Map New forecast layout! Learn more

10-Day Weather Forecast

Advertisements
Track Severe Weather on mobile